createdAt,value
2018-07-21T00:03:52.707Z,6.47
2018-07-21T00:08:56.726Z,5.97
2018-07-21T00:13:59.938Z,6.27
2018-07-21T00:19:03.415Z,5.20
2018-07-21T00:24:06.681Z,2.93
2018-07-21T00:29:10.226Z,3.00
2018-07-21T00:34:14.285Z,4.23
2018-07-21T00:39:17.818Z,4.77
2018-07-21T00:44:21.397Z,4.43
2018-07-21T00:49:24.589Z,3.43
2018-07-21T00:54:27.976Z,3.60
2018-07-21T00:59:31.873Z,4.30
2018-07-21T01:04:35.182Z,5.20
2018-07-21T01:09:39.481Z,5.50
2018-07-21T01:14:43.068Z,5.10
2018-07-21T01:19:46.557Z,3.50
2018-07-21T01:24:50.328Z,2.80
2018-07-21T01:29:53.662Z,4.00
2018-07-21T01:34:56.950Z,3.50
2018-07-21T01:40:00.470Z,4.33
2018-07-21T01:45:04.025Z,4.53
2018-07-21T01:50:07.717Z,4.97
2018-07-21T01:55:11.006Z,4.03
2018-07-21T02:00:14.218Z,3.10
2018-07-21T02:05:17.746Z,5.00
2018-07-21T02:10:21.950Z,4.63
2018-07-21T02:15:25.374Z,5.33
2018-07-21T02:20:29.030Z,5.80
2018-07-21T02:25:33.250Z,6.83
2018-07-21T02:30:36.911Z,5.23
2018-07-21T02:35:40.493Z,6.23
2018-07-21T02:40:44.128Z,4.30
2018-07-21T02:45:47.681Z,4.57
2018-07-21T02:50:51.411Z,4.40
2018-07-21T02:55:54.890Z,3.27
2018-07-21T03:00:58.441Z,4.57
2018-07-21T03:06:02.183Z,3.90
2018-07-21T03:11:05.577Z,3.50
2018-07-21T03:16:09.103Z,3.10
2018-07-21T03:21:12.754Z,4.07
2018-07-21T03:26:17.512Z,4.20
2018-07-21T03:31:20.780Z,3.93
2018-07-21T03:36:24.273Z,3.27
2018-07-21T03:41:28.012Z,2.87
2018-07-21T03:46:31.509Z,3.67
2018-07-21T03:51:34.758Z,3.57
2018-07-21T03:56:38.340Z,3.40
2018-07-21T04:01:41.954Z,3.17
2018-07-21T04:06:45.183Z,3.70
2018-07-21T04:11:49.312Z,3.60
2018-07-21T04:16:52.530Z,2.80
2018-07-21T04:21:56.550Z,3.47
2018-07-21T04:27:00.171Z,3.50
2018-07-21T04:32:03.633Z,4.17
2018-07-21T04:37:07.236Z,3.37
2018-07-21T04:42:11.616Z,3.10
2018-07-21T04:47:15.178Z,4.13
2018-07-21T04:52:18.458Z,3.27
2018-07-21T04:57:21.725Z,2.63
2018-07-21T05:02:24.945Z,4.07
2018-07-21T05:07:28.160Z,6.63
2018-07-21T05:12:32.589Z,6.20
2018-07-21T05:17:36.114Z,6.57
2018-07-21T05:22:39.394Z,6.27
2018-07-21T05:27:43.908Z,7.20
2018-07-21T05:32:47.420Z,5.30
2018-07-21T05:37:50.712Z,5.90
2018-07-21T05:42:54.407Z,6.37
2018-07-21T05:47:58.037Z,6.60
2018-07-21T05:53:01.278Z,3.90
2018-07-21T05:58:04.766Z,5.70
2018-07-21T06:03:08.731Z,5.53
2018-07-21T06:08:16.183Z,4.50
2018-07-21T06:13:20.558Z,6.50
2018-07-21T06:18:24.784Z,6.80
2018-07-21T06:23:28.282Z,7.20
2018-07-21T06:28:33.787Z,5.87
2018-07-21T06:33:37.549Z,6.70
2018-07-21T06:38:41.412Z,6.17
2018-07-21T06:43:45.757Z,6.60
2018-07-21T06:48:49.152Z,7.00
2018-07-21T06:53:52.976Z,5.57
2018-07-21T06:58:56.280Z,6.30
2018-07-21T07:03:59.518Z,5.93
2018-07-21T07:09:03.934Z,6.40
2018-07-21T07:14:08.366Z,5.60
2018-07-21T07:19:11.719Z,6.20
2018-07-21T07:24:15.257Z,6.73
2018-07-21T07:29:19.255Z,5.77
2018-07-21T07:34:22.550Z,6.47
2018-07-21T07:39:25.878Z,5.80
2018-07-21T07:44:29.205Z,5.20
2018-07-21T07:49:32.540Z,5.83
2018-07-21T07:54:36.357Z,5.47
2018-07-21T07:59:44.872Z,5.93
2018-07-21T08:04:48.710Z,5.10
2018-07-21T08:09:55.010Z,5.53
2018-07-21T08:14:58.969Z,5.30
2018-07-21T08:20:02.310Z,5.53
2018-07-21T08:25:05.642Z,5.90
2018-07-21T08:30:11.337Z,5.70
2018-07-21T08:35:14.737Z,4.77
2018-07-21T08:40:18.170Z,5.47
2018-07-21T08:45:21.714Z,6.00
2018-07-21T08:50:25.228Z,6.10
2018-07-21T08:55:28.622Z,5.33
2018-07-21T09:00:33.131Z,5.80
2018-07-21T09:05:36.809Z,5.87
2018-07-21T09:16:14.294Z,5.50
2018-07-21T09:21:17.590Z,6.10
2018-07-21T09:26:21.085Z,5.63
2018-07-21T09:31:24.942Z,5.20
2018-07-21T09:36:28.629Z,6.00
2018-07-21T09:41:32.337Z,6.23
2018-07-21T09:46:35.849Z,5.40
2018-07-21T09:51:39.329Z,5.63
2018-07-21T09:56:42.837Z,5.53
2018-07-21T10:01:46.441Z,5.30
2018-07-21T10:06:50.438Z,6.20
2018-07-21T10:11:54.272Z,5.77
2018-07-21T10:16:57.621Z,5.67
2018-07-21T10:22:01.395Z,5.83
2018-07-21T10:27:10.540Z,6.50
2018-07-21T10:32:15.354Z,5.33
2018-07-21T10:37:18.931Z,6.40
2018-07-21T10:42:22.221Z,5.90
2018-07-21T10:47:25.484Z,4.77
2018-07-21T10:52:29.141Z,6.00
2018-07-21T10:57:37.007Z,5.07
2018-07-21T11:02:40.915Z,6.50
2018-07-21T11:07:44.271Z,5.83
2018-07-21T11:12:47.969Z,6.87
2018-07-21T11:17:51.498Z,6.10
2018-07-21T11:22:55.255Z,6.20
2018-07-21T11:28:00.961Z,4.90
2018-07-21T11:33:04.653Z,6.13
2018-07-21T11:38:08.310Z,6.60
2018-07-21T11:43:11.960Z,4.10
2018-07-21T11:48:21.649Z,4.67
2018-07-21T11:53:26.482Z,5.10
2018-07-21T11:58:29.809Z,4.23
2018-07-21T12:03:33.116Z,5.03
2018-07-21T12:08:36.399Z,4.33
2018-07-21T12:13:40.322Z,4.97
2018-07-21T12:18:43.847Z,4.97
2018-07-21T12:23:47.382Z,5.07
2018-07-21T12:28:50.961Z,4.63
2018-07-21T12:34:00.197Z,5.17
2018-07-21T12:39:05.699Z,6.17
2018-07-21T12:44:09.157Z,5.77
2018-07-21T12:49:12.890Z,4.90
2018-07-21T12:54:16.381Z,4.50
2018-07-21T12:59:19.755Z,5.80
2018-07-21T13:04:23.205Z,5.30
2018-07-21T13:09:33.070Z,5.50
2018-07-21T13:14:37.004Z,4.27
2018-07-21T13:19:40.820Z,4.13
2018-07-21T13:24:44.419Z,5.50
2018-07-21T13:29:48.037Z,4.87
2018-07-21T13:34:53.795Z,4.23
2018-07-21T13:39:57.375Z,6.00
2018-07-21T13:45:01.105Z,5.20
2018-07-21T13:50:04.829Z,5.53
2018-07-21T13:55:09.291Z,4.83
2018-07-21T14:00:13.002Z,5.20
2018-07-21T14:05:16.689Z,4.50
2018-07-21T14:10:20.258Z,5.33
2018-07-21T14:15:23.786Z,5.30
2018-07-21T14:20:27.385Z,6.10
2018-07-21T14:25:31.281Z,5.07
2018-07-21T14:30:34.765Z,5.67
2018-07-21T14:35:40.440Z,4.60
2018-07-21T14:40:44.021Z,4.40
2018-07-21T14:45:48.510Z,4.77
2018-07-21T14:50:52.225Z,5.33
2018-07-21T14:55:57.164Z,4.90
2018-07-21T15:01:09.667Z,5.10
2018-07-21T15:06:13.746Z,5.03
2018-07-21T15:11:17.263Z,5.03
2018-07-21T15:16:20.784Z,5.27
2018-07-21T15:21:30.080Z,4.40
2018-07-21T15:26:33.965Z,5.37
2018-07-21T15:31:38.364Z,5.00
2018-07-21T15:36:42.095Z,4.87
2018-07-21T15:41:45.642Z,6.40
2018-07-21T15:46:49.265Z,4.43
2018-07-21T15:51:53.732Z,5.87
2018-07-21T15:56:57.465Z,5.50
2018-07-21T16:02:01.214Z,5.70
2018-07-21T16:07:04.885Z,5.10
2018-07-21T16:12:08.571Z,5.73
2018-07-21T16:17:12.189Z,5.17
2018-07-21T16:22:16.049Z,5.80
2018-07-21T16:27:19.626Z,5.23
2018-07-21T16:32:23.256Z,5.97
2018-07-21T16:37:26.994Z,6.37
2018-07-21T16:42:30.609Z,5.63
2018-07-21T16:47:34.300Z,5.10
2018-07-21T16:52:37.968Z,5.70
2018-07-21T16:57:41.854Z,5.67
2018-07-21T17:02:45.414Z,5.57
2018-07-21T17:07:51.631Z,5.60
2018-07-21T17:12:56.621Z,5.73
2018-07-21T17:18:00.049Z,5.67
2018-07-21T17:23:04.475Z,6.20
2018-07-21T17:28:08.098Z,6.10
2018-07-21T17:33:11.505Z,5.43
2018-07-21T17:38:15.547Z,5.00
2018-07-21T17:43:19.000Z,5.50
2018-07-21T17:48:22.725Z,5.17
2018-07-21T17:53:26.453Z,5.80
2018-07-21T17:58:35.355Z,5.93
2018-07-21T18:03:39.171Z,5.23
2018-07-21T18:08:42.544Z,5.63
2018-07-21T18:13:45.921Z,5.53
2018-07-21T18:18:49.123Z,4.73
2018-07-21T18:24:04.123Z,3.90
2018-07-21T18:29:07.844Z,3.70
2018-07-21T18:34:16.910Z,3.40
2018-07-21T18:39:20.952Z,3.50
2018-07-21T18:44:24.293Z,3.13
2018-07-21T18:49:27.543Z,3.23
2018-07-21T18:54:31.464Z,3.43
2018-07-21T18:59:35.209Z,3.70
2018-07-21T19:04:38.430Z,3.50
2018-07-21T19:09:41.916Z,3.30
2018-07-21T19:14:45.346Z,2.93
2018-07-21T19:19:54.079Z,2.70
2018-07-21T19:24:57.650Z,2.63
2018-07-21T19:30:01.904Z,3.10
2018-07-21T19:35:05.201Z,2.50
2018-07-21T19:40:09.770Z,2.40
2018-07-21T19:45:18.079Z,2.53
2018-07-21T19:50:21.568Z,3.33
2018-07-21T19:55:24.982Z,2.40
2018-07-21T20:00:33.136Z,2.53
2018-07-21T20:05:36.330Z,2.10
2018-07-21T20:10:40.459Z,2.70
2018-07-21T20:15:43.719Z,2.70
2018-07-21T20:20:51.231Z,3.10
2018-07-21T20:26:01.129Z,2.87
2018-07-21T20:31:15.813Z,2.90
2018-07-21T20:36:20.351Z,2.90
2018-07-21T20:41:24.013Z,3.20
2018-07-21T20:46:31.692Z,2.70
2018-07-21T20:51:35.230Z,3.40
2018-07-21T20:56:43.733Z,2.67
2018-07-21T21:01:47.225Z,3.00
2018-07-21T21:06:51.171Z,3.10
2018-07-21T21:11:54.532Z,3.17
2018-07-21T21:16:57.730Z,3.10
2018-07-21T21:22:01.075Z,3.30
2018-07-21T21:27:05.226Z,3.00
2018-07-21T21:32:08.461Z,4.13
2018-07-21T21:37:11.998Z,3.70
2018-07-21T21:42:15.880Z,3.20
2018-07-21T21:47:19.101Z,3.20
2018-07-21T21:52:22.317Z,2.97
2018-07-21T21:57:26.385Z,3.40
2018-07-21T22:02:29.905Z,3.10
2018-07-21T22:07:33.186Z,3.67
2018-07-21T22:12:37.069Z,3.50
2018-07-21T22:17:40.321Z,4.23
2018-07-21T22:22:43.871Z,2.90
2018-07-21T22:27:47.174Z,3.50
2018-07-21T22:32:50.481Z,3.40
2018-07-21T22:37:53.693Z,3.83
2018-07-21T22:42:58.027Z,2.90
2018-07-21T22:48:01.263Z,3.60
2018-07-21T22:53:04.696Z,3.10
2018-07-21T22:58:08.322Z,3.10
2018-07-21T23:03:11.561Z,3.70
2018-07-21T23:08:14.834Z,3.10
2018-07-21T23:13:19.041Z,3.53
2018-07-21T23:18:22.243Z,3.63
2018-07-21T23:23:25.603Z,3.10
2018-07-21T23:28:29.117Z,3.73
2018-07-21T23:33:32.681Z,4.73
2018-07-21T23:38:35.900Z,3.80
2018-07-21T23:43:39.465Z,4.63
2018-07-21T23:48:42.697Z,4.30
2018-07-21T23:53:46.037Z,3.83
2018-07-21T23:58:50.773Z,4.03
